Flight Track Log - Related Links

Times and Time Zones

All times are in EDT time to prevent confusion due to time zone crossing. See the AWI3722 flight status page for this flight to view local times or setup timezone preferences in your user account.

Time Position Orientation Groundspeed Altitude Reporting Facility
EDT Latitude Longitude Course Direction KTS MPH feet Rate Location/Type
Sun 03:42:25 PM 43.6439 -70.4403 267° West 200 230 4,300  Level Boston Center
Sun 03:43:00 PM 43.5428 -70.1509 226° Southwest  Level FlightAware Approximate
Sun 03:43:25 PM 43.6114 -70.4958 231° Southwest 204 235 5,500  Level Boston Center
Sun 03:44:00 PM 43.4754 -70.2471 226° Southwest  Level FlightAware Approximate
Sun 03:44:39 PM 43.5289 -70.5414 202° Southwest 244 281 8,500  Level Boston Center
Sun 03:45:00 PM 43.4155 -70.3516 226° Southwest  Level FlightAware Approximate
Sun 03:45:39 PM 43.4317 -70.5903 200° South 284 327 10,600  Level Boston Center
Sun 03:46:00 PM 43.3475 -70.4469 226° Southwest  Level FlightAware Approximate
Sun 03:46:51 PM 43.3572 -70.6267 200° South 316 364 12,100  Level Boston Center
Sun 03:47:49 PM 43.2414 -70.6817 199° South 326 375 14,000 1,966 Climbing Boston Center
Sun 03:48:50 PM 43.1544 -70.7294 202° Southwest 332 382 16,000 1,700 Climbing Boston Center
Sun 03:49:49 PM 43.0700 -70.7889 207° Southwest 337 388 17,400 1,462 Climbing Boston Center
Sun 03:50:49 PM 42.9833 -70.8508 208° Southwest 347 399 18,900 1,240 Climbing Boston Center
Sun 03:51:50 PM 42.9233 -70.8892 205° Southwest 347 399 19,900 992 Climbing Boston Center
Sun 03:52:50 PM 42.8139 -70.9628 206° Southwest 347 399 20,900 1,041 Climbing Boston Center
Sun 03:53:51 PM 42.7186 -71.0131 201° Southwest 364 419 22,000 1,008 Climbing Boston Center
Sun 03:54:49 PM 42.6172 -71.0633 200° South 374 430 22,900 966 Climbing Boston Center
Sun 03:55:49 PM 42.5197 -71.1133 201° Southwest 386 444 23,900 843 Climbing Boston Center
Sun 03:56:50 PM 42.4203 -71.1689 202° Southwest 391 450 24,600 744 Climbing Boston Center
Sun 03:57:50 PM 42.3381 -71.2519 217° Southwest 379 436 25,400 706 Climbing Boston Center
Sun 03:58:49 PM 42.2533 -71.3322 215° Southwest 379 436 26,000 655 Climbing Boston Center
Sun 03:59:49 PM 42.1686 -71.4178 217° Southwest 379 436 26,700 595 Climbing Boston Center
Sun 04:00:50 PM 42.0819 -71.5031 216° Southwest 385 443 27,200 496 Climbing Boston Center
Sun 04:01:50 PM 41.9908 -71.5853 214° Southwest 385 443 27,700 397 Climbing Boston Center
Sun 04:02:51 PM 41.9039 -71.6731 217° Southwest 391 450 28,000 148 Climbing Boston Center
Sun 04:03:52 PM 41.8147 -71.7578 215° Southwest 396 456 28,000  Level Boston Center
Sun 04:04:49 PM 41.7256 -71.8447 216° Southwest 403 464 28,000  Level Boston Center
Sun 04:05:50 PM 41.6364 -71.9289 215° Southwest 403 464 28,000  Level Boston Center
Sun 04:06:50 PM 41.5472 -72.0131 215° Southwest 403 464 28,000  Level Boston Center
Sun 04:07:49 PM 41.4578 -72.0994 216° Southwest 403 464 28,000  Level Boston Center
Sun 04:08:49 PM 41.3686 -72.1856 216° Southwest 403 464 28,000  Level Boston Center
Sun 04:09:50 PM 41.2833 -72.2689 216° Southwest 403 464 28,000  Level Boston Center
Sun 04:10:50 PM 41.1936 -72.3519 215° Southwest 403 464 28,000  Level Boston Center
Sun 04:11:50 PM 41.1061 -72.4372 216° Southwest 403 464 28,000  Level Boston Center
Sun 04:12:51 PM 41.0167 -72.5197 215° Southwest 403 464 28,000 -555 Level Boston Center
Sun 04:13:49 PM 40.9269 -72.6050 216° Southwest 403 464 26,900 -1,169 Descending Boston Center
Sun 04:14:49 PM 40.8350 -72.6897 215° Southwest 403 464 25,700 -1,190 Descending Boston Center
Sun 04:15:50 PM 40.7536 -72.7633 214° Southwest 389 448 24,500 -843 Descending Boston Center
Sun 04:16:50 PM 40.6889 -72.8206 214° Southwest 374 430 24,000 -1,053 Descending Boston Center
Sun 04:18:58 PM 40.4928 -73.0061 216° Southwest 345 397 21,200 -1,270 Descending New York Center
Sun 04:19:59 PM 40.4164 -73.0772 210° Southwest 351 404 20,000 -590 Descending New York Center
Sun 04:20:00 PM 40.4035 -73.0683 210° Southwest  Level FlightAware Approximate
Sun 04:21:00 PM 40.3419 -73.1456 215° Southwest 343 395 20,000  Level New York Center
Sun 04:21:58 PM 40.2636 -73.2136 214° Southwest 336 387 20,000  Level New York Center
Sun 04:22:59 PM 40.1869 -73.2869 216° Southwest 336 387 20,000  Level New York Center
Sun 04:23:59 PM 40.1061 -73.3572 214° Southwest 342 394 20,000  Level New York Center
Sun 04:25:00 PM 40.0294 -73.4331 217° Southwest 342 394 20,000  Level New York Center
Sun 04:25:58 PM 39.9467 -73.5028 213° Southwest 347 399 20,000  Level New York Center
Sun 04:26:59 PM 39.8781 -73.5814 221° Southwest 347 399 20,000  Level New York Center
Sun 04:27:59 PM 39.8194 -73.6736 230° Southwest 335 386 20,000  Level New York Center
Sun 04:29:01 PM 39.7581 -73.7778 233° Southwest 334 384 20,000 -295 Level Washington Center
Sun 04:30:01 PM 39.7050 -73.8544 228° Southwest 312 359 19,400 -1,200 Descending Washington Center
Sun 04:31:01 PM 39.6481 -73.9422 230° Southwest 312 359 17,600 -1,765 Descending Washington Center
Sun 04:32:00 PM 39.5933 -74.0275 230° Southwest 313 360 15,900 -1,671 Descending FAA TRACON SMA TRACON (SMA)
Sun 04:32:20 PM 39.5764 -74.0544 231° Southwest 312 359 15,400 -1,500 Descending FAA TRACON SMA TRACON (SMA)
Sun 04:32:40 PM 39.5594 -74.0808 230° Southwest 312 359 14,900 -1,650 Descending FAA TRACON SMA TRACON (SMA)
Sun 04:33:00 PM 39.5394 -74.1131 231° Southwest 309 356 14,300 -1,200 Descending FAA TRACON SMA TRACON (SMA)
Sun 04:33:20 PM 39.5231 -74.1403 232° Southwest 305 351 14,100 -300 Descending FAA TRACON SMA TRACON (SMA)
Sun 04:33:40 PM 39.5075 -74.1667 233° Southwest 303 349 14,100  Level FAA TRACON SMA TRACON (SMA)
Sun 04:34:00 PM 39.4886 -74.1989 233° Southwest 296 341 14,100  Level FAA TRACON SMA TRACON (SMA)
Sun 04:34:20 PM 39.4736 -74.2242 232° Southwest 293 337 14,100  Level FAA TRACON SMA TRACON (SMA)
Sun 04:34:40 PM 39.4594 -74.2481 232° Southwest 292 336 14,100  Level FAA TRACON SMA TRACON (SMA)
Sun 04:35:00 PM 39.4400 -74.2811 233° Southwest 289 333 14,100  Level FAA TRACON SMA TRACON (SMA)
Sun 04:35:20 PM 39.4250 -74.3067 233° Southwest 287 330 14,100  Level FAA TRACON SMA TRACON (SMA)
Sun 04:35:43 PM 39.4067 -74.3367 232° Southwest 289 333 14,100  Level FAA TRACON SMA TRACON (SMA)
Sun 04:36:03 PM 39.3911 -74.3639 234° Southwest 290 334 14,100 -486 Level FAA TRACON SMA TRACON (SMA)
Sun 04:36:20 PM 39.3761 -74.3889 232° Southwest 288 331 13,800 -1,135 Descending FAA TRACON SMA TRACON (SMA)
Sun 04:36:40 PM 39.3617 -74.4125 232° Southwest 278 320 13,400 -1,050 Descending FAA TRACON SMA TRACON (SMA)
Sun 04:37:00 PM 39.3450 -74.4403 232° Southwest 266 306 13,100 -600 Descending FAA TRACON SMA TRACON (SMA)
Sun 04:37:20 PM 39.3314 -74.4619 231° Southwest 259 298 13,000  Descending FAA TRACON SMA TRACON (SMA)
Sun 04:37:40 PM 39.3175 -74.4867 234° Southwest 264 304 13,100 150 Climbing FAA TRACON SMA TRACON (SMA)
Sun 04:38:00 PM 39.2997 -74.5161 232° Southwest 267 307 13,100 -450 Level FAA TRACON SMA TRACON (SMA)
Sun 04:38:20 PM 39.2917 -74.5447 250° West 273 314 12,800 -1,050 Descending FAA TRACON SMA TRACON (SMA)
Sun 04:38:40 PM 39.2892 -74.5717 263° West 246 283 12,400 -1,650 Descending FAA TRACON SMA TRACON (SMA)
Sun 04:39:00 PM 39.2861 -74.6081 264° West 259 298 11,700 -1,800 Descending FAA TRACON SMA TRACON (SMA)
Sun 04:39:20 PM 39.2850 -74.6347 267° West 246 283 11,200 -1,350 Descending FAA TRACON SMA TRACON (SMA)
Sun 04:39:40 PM 39.2831 -74.6636 265° West 248 285 10,800 -1,500 Descending FAA TRACON SMA TRACON (SMA)
Sun 04:40:00 PM 39.2947 -74.6931 297° West 236 272 10,200 -1,500 Descending FAA TRACON SMA TRACON (SMA)
Sun 04:40:20 PM 39.3106 -74.7089 322° Northwest 244 281 9,800 -1,350 Descending FAA TRACON SMA TRACON (SMA)
Sun 04:40:40 PM 39.3258 -74.7269 318° Northwest 244 281 9,300 -1,050 Descending FAA TRACON SMA TRACON (SMA)
Sun 04:41:00 PM 39.3450 -74.7481 320° Northwest 240 276 9,100 -300 Descending FAA TRACON SMA TRACON (SMA)
Sun 04:41:20 PM 39.3603 -74.7661 318° Northwest 237 273 9,100 -150 Level FAA TRACON SMA TRACON (SMA)
Sun 04:41:40 PM 39.3764 -74.7844 319° Northwest 237 273 9,000  Descending FAA TRACON SMA TRACON (SMA)
Sun 04:42:00 PM 39.3950 -74.8056 319° Northwest 239 275 9,100 150 Climbing FAA TRACON SMA TRACON (SMA)
Sun 04:42:20 PM 39.4106 -74.8231 319° Northwest 240 276 9,100  Level FAA TRACON SMA TRACON (SMA)
Sun 04:42:40 PM 39.4264 -74.8406 320° Northwest 242 278 9,100  Level FAA TRACON SMA TRACON (SMA)
Sun 04:43:00 PM 39.4458 -74.8628 319° Northwest 243 280 9,100 -300 Level FAA TRACON SMA TRACON (SMA)
Sun 04:43:20 PM 39.4603 -74.8797 318° Northwest 243 280 8,900 -600 Descending FAA TRACON SMA TRACON (SMA)
Sun 04:43:40 PM 39.4700 -74.9047 297° West 232 267 8,700 -900 Descending FAA TRACON SMA TRACON (SMA)
Sun 04:44:00 PM 39.4781 -74.9356 289° West 233 268 8,300 -1,050 Descending FAA TRACON SMA TRACON (SMA)
Sun 04:44:20 PM 39.4842 -74.9586 289° West 235 270 8,000 -900 Descending FAA TRACON SMA TRACON (SMA)
Sun 04:44:40 PM 39.5017 -74.9733 327° Northwest 235 270 7,700 -1,050 Descending FAA TRACON SMA TRACON (SMA)
Sun 04:45:00 PM 39.5256 -74.9861 338° Northwest 236 272 7,300 -900 Descending FAA TRACON SMA TRACON (SMA)
Sun 04:45:20 PM 39.5433 -74.9964 336° Northwest 231 266 7,100 -900 Descending FAA TRACON SMA TRACON (SMA)
Sun 04:45:40 PM 39.5614 -75.0075 335° Northwest 231 266 6,700 -1,350 Descending FAA TRACON SMA TRACON (SMA)
Sun 04:46:00 PM 39.5808 -75.0208 332° Northwest 228 262 6,200 -1,050 Descending FAA TRACON SMA TRACON (SMA)
Sun 04:46:20 PM 39.5997 -75.0342 331° Northwest 224 258 6,000 -300 Descending FAA TRACON SMA TRACON (SMA)
Sun 04:46:40 PM 39.6144 -75.0453 330° Northwest 223 257 6,000 -150 Level FAA TRACON SMA TRACON (SMA)
Sun 04:47:00 PM 39.6336 -75.0592 331° Northwest 198 228 5,900 -750 Descending FAA TRACON SMA TRACON (SMA)
Sun 04:47:20 PM 39.6481 -75.0700 330° Northwest 181 208 5,500 -1,200 Descending FAA TRACON SMA TRACON (SMA)
Sun 04:47:40 PM 39.6608 -75.0797 330° Northwest 174 200 5,100 -1,500 Descending FAA TRACON SMA TRACON (SMA)
Sun 04:48:00 PM 39.6758 -75.0939 324° Northwest 174 200 4,500 -1,500 Descending FAA TRACON SMA TRACON (SMA)
Sun 04:48:20 PM 39.6867 -75.1067 318° Northwest 179 206 4,100 -1,200 Descending FAA TRACON SMA TRACON (SMA)
Sun 04:48:40 PM 39.6906 -75.1236 287° West 176 203 3,700 -1,350 Descending FAA TRACON SMA TRACON (SMA)
Sun 04:49:00 PM 39.6969 -75.1433 293° West 173 199 3,200 -900 Descending FAA TRACON SMA TRACON (SMA)
Sun 04:49:20 PM 39.7131 -75.1550 331° Northwest 169 194 3,100 -300 Descending FAA TRACON SMA TRACON (SMA)
Sun 04:49:40 PM 39.7269 -75.1578 351° North 181 208 3,000 -150 Descending FAA TRACON SMA TRACON (SMA)
Sun 04:50:00 PM 39.7453 -75.1664 340° North 172 198 3,000  Level FAA TRACON SMA TRACON (SMA)

Login

Don't have an account? Register now (free) for customized features, flight alerts, and more!